sensor_id;sensor_type;location;lat;lon;timestamp;temperature;humidity
47482;DHT22;33219;47.410;9.730;2023-06-14T00:00:20;15.50;70.40
47482;DHT22;33219;47.410;9.730;2023-06-14T00:02:48;15.50;70.50
47482;DHT22;33219;47.410;9.730;2023-06-14T00:05:15;15.50;70.80
47482;DHT22;33219;47.410;9.730;2023-06-14T00:07:43;15.50;70.50
47482;DHT22;33219;47.410;9.730;2023-06-14T00:10:14;15.50;70.70
47482;DHT22;33219;47.410;9.730;2023-06-14T00:12:42;15.50;70.80
47482;DHT22;33219;47.410;9.730;2023-06-14T00:15:10;15.50;70.80
47482;DHT22;33219;47.410;9.730;2023-06-14T00:17:38;15.40;70.80
47482;DHT22;33219;47.410;9.730;2023-06-14T00:20:06;15.40;70.60
47482;DHT22;33219;47.410;9.730;2023-06-14T00:22:34;15.40;71.60
47482;DHT22;33219;47.410;9.730;2023-06-14T00:25:03;15.40;71.10
47482;DHT22;33219;47.410;9.730;2023-06-14T00:27:31;15.30;70.90
47482;DHT22;33219;47.410;9.730;2023-06-14T00:29:59;15.30;71.20
47482;DHT22;33219;47.410;9.730;2023-06-14T00:32:27;15.20;71.50
47482;DHT22;33219;47.410;9.730;2023-06-14T00:34:54;15.20;71.80
47482;DHT22;33219;47.410;9.730;2023-06-14T00:37:22;15.20;71.80
47482;DHT22;33219;47.410;9.730;2023-06-14T00:39:49;15.10;72.20
47482;DHT22;33219;47.410;9.730;2023-06-14T00:42:27;15.10;72.10
47482;DHT22;33219;47.410;9.730;2023-06-14T00:44:55;15.10;72.10
47482;DHT22;33219;47.410;9.730;2023-06-14T00:47:22;15.00;72.20
47482;DHT22;33219;47.410;9.730;2023-06-14T00:49:50;14.90;72.20
47482;DHT22;33219;47.410;9.730;2023-06-14T00:52:18;14.90;72.80
47482;DHT22;33219;47.410;9.730;2023-06-14T00:54:47;14.90;72.50
47482;DHT22;33219;47.410;9.730;2023-06-14T00:57:14;14.90;72.30
47482;DHT22;33219;47.410;9.730;2023-06-14T00:59:46;14.90;72.60
47482;DHT22;33219;47.410;9.730;2023-06-14T01:02:14;14.80;73.00
47482;DHT22;33219;47.410;9.730;2023-06-14T01:04:44;14.90;73.00
47482;DHT22;33219;47.410;9.730;2023-06-14T01:15:15;14.70;73.60
47482;DHT22;33219;47.410;9.730;2023-06-14T01:17:45;14.70;73.50
47482;DHT22;33219;47.410;9.730;2023-06-14T01:20:13;14.70;73.90
47482;DHT22;33219;47.410;9.730;2023-06-14T01:22:56;14.70;73.50
47482;DHT22;33219;47.410;9.730;2023-06-14T01:25:20;14.60;73.50
47482;DHT22;33219;47.410;9.730;2023-06-14T01:28:00;14.60;73.40
47482;DHT22;33219;47.410;9.730;2023-06-14T01:30:30;14.60;73.90
47482;DHT22;33219;47.410;9.730;2023-06-14T01:33:00;14.60;74.10
47482;DHT22;33219;47.410;9.730;2023-06-14T01:35:28;14.60;74.00
47482;DHT22;33219;47.410;9.730;2023-06-14T01:37:55;14.50;74.20
47482;DHT22;33219;47.410;9.730;2023-06-14T01:40:24;14.50;74.30
47482;DHT22;33219;47.410;9.730;2023-06-14T01:42:52;14.40;74.50
47482;DHT22;33219;47.410;9.730;2023-06-14T01:45:20;14.40;74.50
47482;DHT22;33219;47.410;9.730;2023-06-14T01:47:49;14.40;74.80
47482;DHT22;33219;47.410;9.730;2023-06-14T01:50:21;14.40;74.30
47482;DHT22;33219;47.410;9.730;2023-06-14T01:52:48;14.40;74.30
47482;DHT22;33219;47.410;9.730;2023-06-14T01:55:16;14.40;74.60
47482;DHT22;33219;47.410;9.730;2023-06-14T01:57:44;14.40;74.70
47482;DHT22;33219;47.410;9.730;2023-06-14T02:00:13;14.30;74.70
47482;DHT22;33219;47.410;9.730;2023-06-14T02:02:41;14.30;75.00
47482;DHT22;33219;47.410;9.730;2023-06-14T02:05:08;14.20;75.40
47482;DHT22;33219;47.410;9.730;2023-06-14T02:07:37;14.30;75.10
47482;DHT22;33219;47.410;9.730;2023-06-14T02:10:05;14.20;75.30
47482;DHT22;33219;47.410;9.730;2023-06-14T02:16:08;14.20;75.60
47482;DHT22;33219;47.410;9.730;2023-06-14T02:19:00;14.10;75.60
47482;DHT22;33219;47.410;9.730;2023-06-14T02:21:28;14.10;75.80
47482;DHT22;33219;47.410;9.730;2023-06-14T02:23:55;14.10;76.10
47482;DHT22;33219;47.410;9.730;2023-06-14T02:26:24;14.00;75.90
47482;DHT22;33219;47.410;9.730;2023-06-14T02:28:53;14.00;75.90
47482;DHT22;33219;47.410;9.730;2023-06-14T02:31:21;14.00;76.10
47482;DHT22;33219;47.410;9.730;2023-06-14T02:33:49;14.00;76.30
47482;DHT22;33219;47.410;9.730;2023-06-14T02:36:16;14.00;76.10
47482;DHT22;33219;47.410;9.730;2023-06-14T02:38:44;14.00;76.40
47482;DHT22;33219;47.410;9.730;2023-06-14T02:41:11;13.90;76.20
47482;DHT22;33219;47.410;9.730;2023-06-14T02:43:39;13.90;76.20
47482;DHT22;33219;47.410;9.730;2023-06-14T02:46:06;13.90;75.90
47482;DHT22;33219;47.410;9.730;2023-06-14T02:48:34;13.90;76.20
47482;DHT22;33219;47.410;9.730;2023-06-14T02:51:02;13.90;76.10
47482;DHT22;33219;47.410;9.730;2023-06-14T02:53:29;13.90;76.30
47482;DHT22;33219;47.410;9.730;2023-06-14T02:55:57;13.80;75.80
47482;DHT22;33219;47.410;9.730;2023-06-14T02:58:25;13.80;76.00
47482;DHT22;33219;47.410;9.730;2023-06-14T03:00:52;13.70;76.00
47482;DHT22;33219;47.410;9.730;2023-06-14T03:03:20;13.60;76.30
47482;DHT22;33219;47.410;9.730;2023-06-14T03:05:48;13.60;77.20
47482;DHT22;33219;47.410;9.730;2023-06-14T03:08:17;13.50;77.90
47482;DHT22;33219;47.410;9.730;2023-06-14T03:10:47;13.40;78.10
47482;DHT22;33219;47.410;9.730;2023-06-14T03:13:15;13.40;78.60
47482;DHT22;33219;47.410;9.730;2023-06-14T03:15:43;13.30;79.20
47482;DHT22;33219;47.410;9.730;2023-06-14T03:18:11;13.30;79.30
47482;DHT22;33219;47.410;9.730;2023-06-14T03:20:39;13.30;78.80
47482;DHT22;33219;47.410;9.730;2023-06-14T03:23:07;13.30;78.50
47482;DHT22;33219;47.410;9.730;2023-06-14T03:25:35;13.30;79.10
47482;DHT22;33219;47.410;9.730;2023-06-14T03:28:04;13.30;78.40
47482;DHT22;33219;47.410;9.730;2023-06-14T03:30:32;13.20;78.30
47482;DHT22;33219;47.410;9.730;2023-06-14T03:33:00;13.20;78.50
47482;DHT22;33219;47.410;9.730;2023-06-14T03:35:31;13.20;78.80
47482;DHT22;33219;47.410;9.730;2023-06-14T03:37:58;13.20;78.90
47482;DHT22;33219;47.410;9.730;2023-06-14T03:40:26;13.20;79.50
47482;DHT22;33219;47.410;9.730;2023-06-14T03:42:54;13.20;79.40
47482;DHT22;33219;47.410;9.730;2023-06-14T03:45:22;13.20;79.30
47482;DHT22;33219;47.410;9.730;2023-06-14T03:47:50;13.30;79.10
47482;DHT22;33219;47.410;9.730;2023-06-14T03:50:18;13.30;78.80
47482;DHT22;33219;47.410;9.730;2023-06-14T03:52:50;13.40;78.50
47482;DHT22;33219;47.410;9.730;2023-06-14T03:55:18;13.40;78.30
47482;DHT22;33219;47.410;9.730;2023-06-14T03:57:46;13.40;78.40
47482;DHT22;33219;47.410;9.730;2023-06-14T04:00:14;13.40;78.40
47482;DHT22;33219;47.410;9.730;2023-06-14T04:02:42;13.40;78.50
47482;DHT22;33219;47.410;9.730;2023-06-14T04:05:10;13.40;78.50
47482;DHT22;33219;47.410;9.730;2023-06-14T04:07:38;13.40;78.50
47482;DHT22;33219;47.410;9.730;2023-06-14T04:10:10;13.50;78.30
47482;DHT22;33219;47.410;9.730;2023-06-14T04:12:38;13.50;79.30
47482;DHT22;33219;47.410;9.730;2023-06-14T04:15:06;13.60;78.30
47482;DHT22;33219;47.410;9.730;2023-06-14T04:17:35;13.80;79.10
47482;DHT22;33219;47.410;9.730;2023-06-14T04:20:03;13.90;78.20
47482;DHT22;33219;47.410;9.730;2023-06-14T04:22:35;14.00;78.00
47482;DHT22;33219;47.410;9.730;2023-06-14T04:25:03;14.10;77.40
47482;DHT22;33219;47.410;9.730;2023-06-14T04:27:32;14.30;77.90
47482;DHT22;33219;47.410;9.730;2023-06-14T04:30:03;14.90;77.50
47482;DHT22;33219;47.410;9.730;2023-06-14T04:32:30;15.40;74.10
47482;DHT22;33219;47.410;9.730;2023-06-14T04:35:00;15.60;73.10
47482;DHT22;33219;47.410;9.730;2023-06-14T04:37:28;16.30;72.70
47482;DHT22;33219;47.410;9.730;2023-06-14T04:39:57;17.40;72.20
47482;DHT22;33219;47.410;9.730;2023-06-14T04:42:25;19.10;68.70
47482;DHT22;33219;47.410;9.730;2023-06-14T04:44:54;20.00;64.60
47482;DHT22;33219;47.410;9.730;2023-06-14T04:47:22;20.90;62.20
47482;DHT22;33219;47.410;9.730;2023-06-14T04:49:52;21.60;60.70
47482;DHT22;33219;47.410;9.730;2023-06-14T04:52:20;21.80;60.10
47482;DHT22;33219;47.410;9.730;2023-06-14T04:54:47;22.60;59.40
47482;DHT22;33219;47.410;9.730;2023-06-14T04:57:15;23.10;58.40
47482;DHT22;33219;47.410;9.730;2023-06-14T04:59:43;23.90;56.80
47482;DHT22;33219;47.410;9.730;2023-06-14T05:02:11;24.00;56.30
47482;DHT22;33219;47.410;9.730;2023-06-14T05:04:39;24.00;56.50
47482;DHT22;33219;47.410;9.730;2023-06-14T05:07:09;23.50;56.90
47482;DHT22;33219;47.410;9.730;2023-06-14T05:09:37;22.60;59.00
47482;DHT22;33219;47.410;9.730;2023-06-14T05:12:05;22.40;59.20
47482;DHT22;33219;47.410;9.730;2023-06-14T05:14:34;22.70;58.10
47482;DHT22;33219;47.410;9.730;2023-06-14T05:17:02;23.10;57.80
47482;DHT22;33219;47.410;9.730;2023-06-14T05:19:30;23.80;57.00
47482;DHT22;33219;47.410;9.730;2023-06-14T05:21:58;24.40;55.90
47482;DHT22;33219;47.410;9.730;2023-06-14T05:29:47;26.20;53.80
47482;DHT22;33219;47.410;9.730;2023-06-14T05:32:15;26.50;53.40
47482;DHT22;33219;47.410;9.730;2023-06-14T05:35:06;27.00;52.50
47482;DHT22;33219;47.410;9.730;2023-06-14T05:40:36;27.20;52.80
47482;DHT22;33219;47.410;9.730;2023-06-14T05:43:22;27.90;51.40
47482;DHT22;33219;47.410;9.730;2023-06-14T05:46:06;28.20;51.70
47482;DHT22;33219;47.410;9.730;2023-06-14T05:48:52;28.80;51.10
47482;DHT22;33219;47.410;9.730;2023-06-14T05:51:38;28.80;50.80
47482;DHT22;33219;47.410;9.730;2023-06-14T05:54:24;29.60;49.90
47482;DHT22;33219;47.410;9.730;2023-06-14T05:57:14;29.00;50.70
47482;DHT22;33219;47.410;9.730;2023-06-14T05:59:50;30.00;48.40
47482;DHT22;33219;47.410;9.730;2023-06-14T06:05:31;30.90;47.90
47482;DHT22;33219;47.410;9.730;2023-06-14T06:08:19;30.10;48.40
47482;DHT22;33219;47.410;9.730;2023-06-14T06:16:38;27.70;52.00
47482;DHT22;33219;47.410;9.730;2023-06-14T06:24:45;29.60;49.60
47482;DHT22;33219;47.410;9.730;2023-06-14T06:27:24;29.50;50.30
47482;DHT22;33219;47.410;9.730;2023-06-14T06:30:09;29.20;51.10
47482;DHT22;33219;47.410;9.730;2023-06-14T06:32:56;28.60;51.20
47482;DHT22;33219;47.410;9.730;2023-06-14T06:35:33;28.50;52.30
47482;DHT22;33219;47.410;9.730;2023-06-14T06:41:20;28.70;50.80
47482;DHT22;33219;47.410;9.730;2023-06-14T06:44:04;27.90;52.10
47482;DHT22;33219;47.410;9.730;2023-06-14T06:50:01;28.70;51.70
47482;DHT22;33219;47.410;9.730;2023-06-14T06:52:41;28.30;51.50
47482;DHT22;33219;47.410;9.730;2023-06-14T06:55:17;29.00;49.60
47482;DHT22;33219;47.410;9.730;2023-06-14T06:57:55;28.60;52.60
47482;DHT22;33219;47.410;9.730;2023-06-14T07:00:30;30.10;48.40
47482;DHT22;33219;47.410;9.730;2023-06-14T07:03:07;30.30;49.40
47482;DHT22;33219;47.410;9.730;2023-06-14T07:05:48;29.10;48.80
47482;DHT22;33219;47.410;9.730;2023-06-14T07:08:25;29.40;50.10
47482;DHT22;33219;47.410;9.730;2023-06-14T07:11:00;29.60;50.80
47482;DHT22;33219;47.410;9.730;2023-06-14T07:13:42;28.80;50.10
47482;DHT22;33219;47.410;9.730;2023-06-14T07:19:15;31.00;47.40
47482;DHT22;33219;47.410;9.730;2023-06-14T07:21:50;31.30;46.50
47482;DHT22;33219;47.410;9.730;2023-06-14T07:24:35;31.20;46.60
47482;DHT22;33219;47.410;9.730;2023-06-14T07:27:33;30.40;49.20
47482;DHT22;33219;47.410;9.730;2023-06-14T07:30:00;31.00;47.20
47482;DHT22;33219;47.410;9.730;2023-06-14T07:32:48;30.40;48.70
47482;DHT22;33219;47.410;9.730;2023-06-14T07:35:32;29.90;49.20
47482;DHT22;33219;47.410;9.730;2023-06-14T07:38:05;31.20;47.90
47482;DHT22;33219;47.410;9.730;2023-06-14T07:40:46;31.80;47.40
47482;DHT22;33219;47.410;9.730;2023-06-14T07:43:21;30.90;48.30
47482;DHT22;33219;47.410;9.730;2023-06-14T07:48:53;29.70;50.10
47482;DHT22;33219;47.410;9.730;2023-06-14T07:51:40;30.00;49.30
47482;DHT22;33219;47.410;9.730;2023-06-14T07:54:45;29.80;49.90
47482;DHT22;33219;47.410;9.730;2023-06-14T08:00:23;31.30;48.60
47482;DHT22;33219;47.410;9.730;2023-06-14T08:03:05;31.70;48.20
47482;DHT22;33219;47.410;9.730;2023-06-14T08:05:59;31.50;48.00
47482;DHT22;33219;47.410;9.730;2023-06-14T08:11:28;31.70;48.10
47482;DHT22;33219;47.410;9.730;2023-06-14T08:14:20;30.30;49.00
47482;DHT22;33219;47.410;9.730;2023-06-14T08:19:43;29.40;49.40
47482;DHT22;33219;47.410;9.730;2023-06-14T08:22:26;30.40;48.40
47482;DHT22;33219;47.410;9.730;2023-06-14T08:25:04;29.70;49.30
47482;DHT22;33219;47.410;9.730;2023-06-14T08:30:29;29.70;49.70
47482;DHT22;33219;47.410;9.730;2023-06-14T08:33:05;30.20;50.10
47482;DHT22;33219;47.410;9.730;2023-06-14T08:35:47;30.50;49.10
47482;DHT22;33219;47.410;9.730;2023-06-14T08:38:33;29.70;49.70
47482;DHT22;33219;47.410;9.730;2023-06-14T08:41:03;29.60;50.00
47482;DHT22;33219;47.410;9.730;2023-06-14T08:43:47;29.20;51.30
47482;DHT22;33219;47.410;9.730;2023-06-14T08:46:24;29.90;50.30
47482;DHT22;33219;47.410;9.730;2023-06-14T08:49:02;29.10;51.40
47482;DHT22;33219;47.410;9.730;2023-06-14T08:51:46;29.50;51.60
47482;DHT22;33219;47.410;9.730;2023-06-14T08:54:24;29.60;51.40
47482;DHT22;33219;47.410;9.730;2023-06-14T08:57:25;29.50;51.30
47482;DHT22;33219;47.410;9.730;2023-06-14T08:59:51;29.50;51.50
47482;DHT22;33219;47.410;9.730;2023-06-14T09:02:35;29.70;51.00
47482;DHT22;33219;47.410;9.730;2023-06-14T09:05:13;29.70;50.20
47482;DHT22;33219;47.410;9.730;2023-06-14T09:07:51;29.20;51.40
47482;DHT22;33219;47.410;9.730;2023-06-14T09:10:36;29.10;52.00
47482;DHT22;33219;47.410;9.730;2023-06-14T09:13:11;30.30;49.80
47482;DHT22;33219;47.410;9.730;2023-06-14T09:15:48;29.30;51.10
47482;DHT22;33219;47.410;9.730;2023-06-14T09:21:11;29.60;51.00
47482;DHT22;33219;47.410;9.730;2023-06-14T09:23:49;30.00;49.90
47482;DHT22;33219;47.410;9.730;2023-06-14T09:26:36;30.80;49.30
47482;DHT22;33219;47.410;9.730;2023-06-14T09:29:15;30.90;49.90
47482;DHT22;33219;47.410;9.730;2023-06-14T09:32:00;29.80;50.00
47482;DHT22;33219;47.410;9.730;2023-06-14T09:34:53;29.90;50.30
47482;DHT22;33219;47.410;9.730;2023-06-14T09:37:32;30.50;49.70
47482;DHT22;33219;47.410;9.730;2023-06-14T10:30:10;28.70;52.40
47482;DHT22;33219;47.410;9.730;2023-06-14T10:33:08;28.50;53.00
47482;DHT22;33219;47.410;9.730;2023-06-14T10:35:42;28.10;53.60
47482;DHT22;33219;47.410;9.730;2023-06-14T10:38:22;28.10;54.20
47482;DHT22;33219;47.410;9.730;2023-06-14T10:40:52;28.00;54.20
47482;DHT22;33219;47.410;9.730;2023-06-14T10:43:23;28.00;55.50
47482;DHT22;33219;47.410;9.730;2023-06-14T10:46:13;27.90;54.20
47482;DHT22;33219;47.410;9.730;2023-06-14T10:48:42;28.10;53.50
47482;DHT22;33219;47.410;9.730;2023-06-14T10:51:20;28.20;53.00
47482;DHT22;33219;47.410;9.730;2023-06-14T10:53:50;28.10;53.80
47482;DHT22;33219;47.410;9.730;2023-06-14T10:56:32;28.20;53.40
47482;DHT22;33219;47.410;9.730;2023-06-14T10:59:05;28.20;53.80
47482;DHT22;33219;47.410;9.730;2023-06-14T11:04:21;27.50;54.30
47482;DHT22;33219;47.410;9.730;2023-06-14T11:06:57;27.70;54.10
47482;DHT22;33219;47.410;9.730;2023-06-14T11:09:45;27.70;55.30
47482;DHT22;33219;47.410;9.730;2023-06-14T11:12:14;27.90;53.30
47482;DHT22;33219;47.410;9.730;2023-06-14T11:14:48;27.80;53.50
47482;DHT22;33219;47.410;9.730;2023-06-14T11:17:14;27.70;54.10
47482;DHT22;33219;47.410;9.730;2023-06-14T11:19:46;27.80;53.80
47482;DHT22;33219;47.410;9.730;2023-06-14T11:22:26;27.90;54.80
47482;DHT22;33219;47.410;9.730;2023-06-14T11:24:55;28.00;53.90
47482;DHT22;33219;47.410;9.730;2023-06-14T11:30:15;28.30;52.50
47482;DHT22;33219;47.410;9.730;2023-06-14T11:32:45;28.20;51.90
47482;DHT22;33219;47.410;9.730;2023-06-14T11:35:12;28.30;52.30
47482;DHT22;33219;47.410;9.730;2023-06-14T11:37:40;28.30;52.00
47482;DHT22;33219;47.410;9.730;2023-06-14T11:40:16;28.50;50.70
47482;DHT22;33219;47.410;9.730;2023-06-14T11:43:10;28.50;50.80
47482;DHT22;33219;47.410;9.730;2023-06-14T11:45:39;28.60;50.90
47482;DHT22;33219;47.410;9.730;2023-06-14T11:48:11;28.80;50.80
47482;DHT22;33219;47.410;9.730;2023-06-14T11:50:39;28.80;50.10
47482;DHT22;33219;47.410;9.730;2023-06-14T11:53:09;28.80;49.50
47482;DHT22;33219;47.410;9.730;2023-06-14T11:55:45;28.80;50.30
47482;DHT22;33219;47.410;9.730;2023-06-14T11:58:17;28.70;49.90
47482;DHT22;33219;47.410;9.730;2023-06-14T12:00:57;28.70;50.00
47482;DHT22;33219;47.410;9.730;2023-06-14T12:03:33;28.70;49.20
47482;DHT22;33219;47.410;9.730;2023-06-14T12:06:05;28.90;48.70
47482;DHT22;33219;47.410;9.730;2023-06-14T12:08:39;29.00;48.70
47482;DHT22;33219;47.410;9.730;2023-06-14T12:11:11;28.90;48.50
47482;DHT22;33219;47.410;9.730;2023-06-14T12:13:43;28.90;47.90
47482;DHT22;33219;47.410;9.730;2023-06-14T12:16:11;28.80;48.10
47482;DHT22;33219;47.410;9.730;2023-06-14T12:18:45;28.80;48.50
47482;DHT22;33219;47.410;9.730;2023-06-14T12:21:13;28.80;49.20
47482;DHT22;33219;47.410;9.730;2023-06-14T12:23:46;28.80;48.00
47482;DHT22;33219;47.410;9.730;2023-06-14T12:26:16;28.90;48.00
47482;DHT22;33219;47.410;9.730;2023-06-14T12:28:46;29.00;48.80
47482;DHT22;33219;47.410;9.730;2023-06-14T12:31:15;29.00;48.70
47482;DHT22;33219;47.410;9.730;2023-06-14T12:33:43;28.90;47.40
47482;DHT22;33219;47.410;9.730;2023-06-14T12:36:13;28.80;47.30
47482;DHT22;33219;47.410;9.730;2023-06-14T12:38:41;28.80;47.90
47482;DHT22;33219;47.410;9.730;2023-06-14T12:41:09;28.90;48.00
47482;DHT22;33219;47.410;9.730;2023-06-14T12:43:37;28.80;47.60
47482;DHT22;33219;47.410;9.730;2023-06-14T12:46:05;28.80;47.90
47482;DHT22;33219;47.410;9.730;2023-06-14T12:48:40;28.80;48.80
47482;DHT22;33219;47.410;9.730;2023-06-14T12:51:21;28.60;49.00
47482;DHT22;33219;47.410;9.730;2023-06-14T12:53:49;28.70;48.30
47482;DHT22;33219;47.410;9.730;2023-06-14T12:56:20;28.60;47.80
47482;DHT22;33219;47.410;9.730;2023-06-14T12:58:54;28.50;47.60
47482;DHT22;33219;47.410;9.730;2023-06-14T13:01:24;28.40;48.00
47482;DHT22;33219;47.410;9.730;2023-06-14T13:03:57;28.30;48.90
47482;DHT22;33219;47.410;9.730;2023-06-14T13:06:30;28.20;48.80
47482;DHT22;33219;47.410;9.730;2023-06-14T13:09:00;28.20;48.60
47482;DHT22;33219;47.410;9.730;2023-06-14T13:11:29;28.10;48.00
47482;DHT22;33219;47.410;9.730;2023-06-14T13:14:09;28.10;48.90
47482;DHT22;33219;47.410;9.730;2023-06-14T13:16:45;28.30;48.40
47482;DHT22;33219;47.410;9.730;2023-06-14T13:19:13;28.20;49.40
47482;DHT22;33219;47.410;9.730;2023-06-14T13:21:40;28.30;48.40
47482;DHT22;33219;47.410;9.730;2023-06-14T13:24:08;28.40;47.70
47482;DHT22;33219;47.410;9.730;2023-06-14T13:26:36;28.30;46.30
47482;DHT22;33219;47.410;9.730;2023-06-14T13:29:03;28.30;48.10
47482;DHT22;33219;47.410;9.730;2023-06-14T13:31:31;28.40;48.20
47482;DHT22;33219;47.410;9.730;2023-06-14T13:33:59;28.30;49.30
47482;DHT22;33219;47.410;9.730;2023-06-14T13:36:27;28.30;47.70
47482;DHT22;33219;47.410;9.730;2023-06-14T13:38:54;28.40;48.30
47482;DHT22;33219;47.410;9.730;2023-06-14T13:41:22;28.50;47.80
47482;DHT22;33219;47.410;9.730;2023-06-14T13:43:49;28.50;47.80
47482;DHT22;33219;47.410;9.730;2023-06-14T13:46:17;28.50;48.00
47482;DHT22;33219;47.410;9.730;2023-06-14T13:48:44;28.40;47.80
47482;DHT22;33219;47.410;9.730;2023-06-14T13:51:14;28.40;47.50
47482;DHT22;33219;47.410;9.730;2023-06-14T13:53:41;28.30;47.50
47482;DHT22;33219;47.410;9.730;2023-06-14T13:56:09;28.30;48.00
47482;DHT22;33219;47.410;9.730;2023-06-14T13:58:37;28.30;47.40
47482;DHT22;33219;47.410;9.730;2023-06-14T14:01:05;28.20;47.20
47482;DHT22;33219;47.410;9.730;2023-06-14T14:03:34;28.20;48.60
47482;DHT22;33219;47.410;9.730;2023-06-14T14:06:02;28.20;48.20
47482;DHT22;33219;47.410;9.730;2023-06-14T14:08:30;28.20;47.80
47482;DHT22;33219;47.410;9.730;2023-06-14T14:10:58;28.20;47.50
47482;DHT22;33219;47.410;9.730;2023-06-14T14:13:27;28.20;47.70
47482;DHT22;33219;47.410;9.730;2023-06-14T14:15:54;28.10;47.80
47482;DHT22;33219;47.410;9.730;2023-06-14T14:18:22;28.10;47.60
47482;DHT22;33219;47.410;9.730;2023-06-14T14:20:50;27.90;48.60
47482;DHT22;33219;47.410;9.730;2023-06-14T14:23:17;27.80;49.50
47482;DHT22;33219;47.410;9.730;2023-06-14T14:25:47;27.80;49.20
47482;DHT22;33219;47.410;9.730;2023-06-14T14:28:14;27.80;48.30
47482;DHT22;33219;47.410;9.730;2023-06-14T14:30:47;27.80;48.30
47482;DHT22;33219;47.410;9.730;2023-06-14T14:33:15;27.90;48.50
47482;DHT22;33219;47.410;9.730;2023-06-14T14:35:46;27.80;48.40
47482;DHT22;33219;47.410;9.730;2023-06-14T14:38:14;27.80;48.00
47482;DHT22;33219;47.410;9.730;2023-06-14T14:40:43;27.70;48.20
47482;DHT22;33219;47.410;9.730;2023-06-14T14:43:11;27.70;48.40
47482;DHT22;33219;47.410;9.730;2023-06-14T14:45:38;27.70;48.70
47482;DHT22;33219;47.410;9.730;2023-06-14T14:48:06;27.60;48.40
47482;DHT22;33219;47.410;9.730;2023-06-14T14:50:34;27.50;48.20
47482;DHT22;33219;47.410;9.730;2023-06-14T14:53:01;27.50;48.00
47482;DHT22;33219;47.410;9.730;2023-06-14T14:55:29;27.40;48.80
47482;DHT22;33219;47.410;9.730;2023-06-14T14:57:57;27.30;49.20
47482;DHT22;33219;47.410;9.730;2023-06-14T15:00:25;27.20;48.70
47482;DHT22;33219;47.410;9.730;2023-06-14T15:02:52;27.30;49.10
47482;DHT22;33219;47.410;9.730;2023-06-14T15:05:20;27.20;48.90
47482;DHT22;33219;47.410;9.730;2023-06-14T15:07:47;27.20;49.00
47482;DHT22;33219;47.410;9.730;2023-06-14T15:10:15;27.20;48.20
47482;DHT22;33219;47.410;9.730;2023-06-14T15:12:42;27.10;48.90
47482;DHT22;33219;47.410;9.730;2023-06-14T15:15:10;27.10;48.30
47482;DHT22;33219;47.410;9.730;2023-06-14T15:17:38;27.10;48.40
47482;DHT22;33219;47.410;9.730;2023-06-14T15:20:06;27.10;48.90
47482;DHT22;33219;47.410;9.730;2023-06-14T15:22:34;26.90;49.40
47482;DHT22;33219;47.410;9.730;2023-06-14T15:25:01;26.90;49.30
47482;DHT22;33219;47.410;9.730;2023-06-14T15:27:29;26.90;49.00
47482;DHT22;33219;47.410;9.730;2023-06-14T15:29:57;26.80;49.50
47482;DHT22;33219;47.410;9.730;2023-06-14T15:32:24;26.80;49.90
47482;DHT22;33219;47.410;9.730;2023-06-14T15:34:52;26.80;49.40
47482;DHT22;33219;47.410;9.730;2023-06-14T15:37:20;26.60;49.20
47482;DHT22;33219;47.410;9.730;2023-06-14T15:39:47;26.60;49.60
47482;DHT22;33219;47.410;9.730;2023-06-14T15:42:15;26.60;49.40
47482;DHT22;33219;47.410;9.730;2023-06-14T15:44:43;26.50;50.10
47482;DHT22;33219;47.410;9.730;2023-06-14T15:47:10;26.40;50.30
47482;DHT22;33219;47.410;9.730;2023-06-14T15:49:38;26.40;49.70
47482;DHT22;33219;47.410;9.730;2023-06-14T15:52:06;26.40;49.40
47482;DHT22;33219;47.410;9.730;2023-06-14T15:54:34;26.40;50.00
47482;DHT22;33219;47.410;9.730;2023-06-14T15:57:02;26.30;49.50
47482;DHT22;33219;47.410;9.730;2023-06-14T15:59:29;26.30;49.20
47482;DHT22;33219;47.410;9.730;2023-06-14T16:01:57;26.30;49.20
47482;DHT22;33219;47.410;9.730;2023-06-14T16:04:24;26.30;49.70
47482;DHT22;33219;47.410;9.730;2023-06-14T16:06:52;26.20;50.30
47482;DHT22;33219;47.410;9.730;2023-06-14T16:09:20;26.10;49.30
47482;DHT22;33219;47.410;9.730;2023-06-14T16:11:48;26.00;49.00
47482;DHT22;33219;47.410;9.730;2023-06-14T16:14:15;26.00;49.00
47482;DHT22;33219;47.410;9.730;2023-06-14T16:16:43;25.90;49.10
47482;DHT22;33219;47.410;9.730;2023-06-14T16:19:11;25.90;49.10
47482;DHT22;33219;47.410;9.730;2023-06-14T16:21:38;25.90;48.80
47482;DHT22;33219;47.410;9.730;2023-06-14T16:24:06;25.80;49.60
47482;DHT22;33219;47.410;9.730;2023-06-14T16:26:34;25.80;50.00
47482;DHT22;33219;47.410;9.730;2023-06-14T16:29:02;25.70;49.90
47482;DHT22;33219;47.410;9.730;2023-06-14T16:31:30;25.70;50.00
47482;DHT22;33219;47.410;9.730;2023-06-14T16:33:57;25.60;50.60
47482;DHT22;33219;47.410;9.730;2023-06-14T16:36:25;25.50;50.80
47482;DHT22;33219;47.410;9.730;2023-06-14T16:38:53;25.50;51.20
47482;DHT22;33219;47.410;9.730;2023-06-14T16:41:21;25.40;51.20
47482;DHT22;33219;47.410;9.730;2023-06-14T16:43:48;25.30;50.80
47482;DHT22;33219;47.410;9.730;2023-06-14T16:46:27;25.40;50.90
47482;DHT22;33219;47.410;9.730;2023-06-14T16:48:46;25.30;51.10
47482;DHT22;33219;47.410;9.730;2023-06-14T16:51:14;25.30;51.10
47482;DHT22;33219;47.410;9.730;2023-06-14T16:53:41;25.20;51.20
47482;DHT22;33219;47.410;9.730;2023-06-14T16:56:09;25.20;51.00
47482;DHT22;33219;47.410;9.730;2023-06-14T16:58:36;25.20;51.20
47482;DHT22;33219;47.410;9.730;2023-06-14T17:01:04;25.20;50.60
47482;DHT22;33219;47.410;9.730;2023-06-14T17:03:32;25.10;49.90
47482;DHT22;33219;47.410;9.730;2023-06-14T17:06:00;25.00;50.70
47482;DHT22;33219;47.410;9.730;2023-06-14T17:08:28;24.90;50.70
47482;DHT22;33219;47.410;9.730;2023-06-14T17:10:55;24.90;50.80
47482;DHT22;33219;47.410;9.730;2023-06-14T17:13:23;24.90;51.00
47482;DHT22;33219;47.410;9.730;2023-06-14T17:15:51;24.80;51.40
47482;DHT22;33219;47.410;9.730;2023-06-14T17:18:19;24.80;50.10
47482;DHT22;33219;47.410;9.730;2023-06-14T17:20:46;24.70;50.80
47482;DHT22;33219;47.410;9.730;2023-06-14T17:23:14;24.80;51.10
47482;DHT22;33219;47.410;9.730;2023-06-14T17:25:41;24.70;50.90
47482;DHT22;33219;47.410;9.730;2023-06-14T17:28:09;24.60;51.40
47482;DHT22;33219;47.410;9.730;2023-06-14T17:30:37;24.60;51.20
47482;DHT22;33219;47.410;9.730;2023-06-14T17:33:09;24.60;51.60
47482;DHT22;33219;47.410;9.730;2023-06-14T17:35:36;24.50;52.00
47482;DHT22;33219;47.410;9.730;2023-06-14T17:38:04;24.40;50.60
47482;DHT22;33219;47.410;9.730;2023-06-14T17:40:32;24.40;50.00
47482;DHT22;33219;47.410;9.730;2023-06-14T17:43:00;24.40;50.60
47482;DHT22;33219;47.410;9.730;2023-06-14T17:45:27;24.40;51.20
47482;DHT22;33219;47.410;9.730;2023-06-14T17:47:55;24.30;50.10
47482;DHT22;33219;47.410;9.730;2023-06-14T17:50:23;24.30;50.20
47482;DHT22;33219;47.410;9.730;2023-06-14T17:52:50;24.30;50.50